createdAt,value
2022-11-10T00:02:21.078Z,99284.1
2022-11-10T00:07:57.283Z,99288.1
2022-11-10T00:13:32.393Z,99289.1
2022-11-10T00:19:07.203Z,99289.5
2022-11-10T00:24:43.095Z,99290.7
2022-11-10T00:30:18.375Z,99290.2
2022-11-10T00:35:53.306Z,99286.9
2022-11-10T00:41:28.184Z,99282.6
2022-11-10T00:47:24.939Z,99289
2022-11-10T00:52:58.427Z,99293.5
2022-11-10T00:58:43.273Z,99289.6
2022-11-10T01:04:18.203Z,99289.8
2022-11-10T01:09:53.341Z,99285
2022-11-10T01:15:28.869Z,99291.5
2022-11-10T01:21:04.956Z,99297.9
2022-11-10T01:26:39.922Z,99299.5
2022-11-10T01:32:15.132Z,99299.7
2022-11-10T01:37:50.135Z,99301.3
2022-11-10T01:43:25.438Z,99303.1
2022-11-10T01:49:22.077Z,99307.4
2022-11-10T01:54:54.674Z,99304.8
2022-11-10T02:00:29.929Z,99308.5
2022-11-10T02:06:05.949Z,99311.9
2022-11-10T02:11:40.885Z,99313.6
2022-11-10T02:17:15.734Z,99318.7
2022-11-10T02:22:50.729Z,99315.5
2022-11-10T02:28:25.791Z,99318.7
2022-11-10T02:34:00.718Z,99317.2
2022-11-10T02:39:35.785Z,99315.1
2022-11-10T02:45:10.901Z,99314.8
2022-11-10T02:50:45.632Z,99316.4
2022-11-10T02:56:20.713Z,99313.5
2022-11-10T03:01:56.660Z,99315.2
2022-11-10T03:07:32.371Z,99314.9
2022-11-10T03:13:07.227Z,99317.6
2022-11-10T03:18:43.039Z,99313
2022-11-10T03:24:18.040Z,99313.8
2022-11-10T03:29:52.807Z,99310.7
2022-11-10T03:35:27.862Z,99314
2022-11-10T03:41:21.497Z,99317.8
2022-11-10T03:47:18.391Z,99327.7
2022-11-10T03:52:51.203Z,99331.1
2022-11-10T03:58:27.230Z,99334.7
2022-11-10T04:04:01.994Z,99343.2
2022-11-10T04:09:37.861Z,99345.9
2022-11-10T04:15:13.009Z,99346.6
2022-11-10T04:20:47.862Z,99345.9
2022-11-10T04:26:26.932Z,99352.1
2022-11-10T04:32:02.044Z,99354.9
2022-11-10T04:37:37.098Z,99358.5
2022-11-10T04:43:12.868Z,99357.6
2022-11-10T04:49:18.266Z,99360.8
2022-11-10T04:54:50.863Z,99362.9
2022-11-10T05:00:27.172Z,99366
2022-11-10T05:06:02.974Z,99360.6
2022-11-10T05:11:38.751Z,99359.4
2022-11-10T05:17:14.791Z,99359
2022-11-10T05:22:51.197Z,99356
2022-11-10T05:28:26.232Z,99362.6
2022-11-10T05:34:01.120Z,99367.3
2022-11-10T05:39:35.916Z,99373.1
2022-11-10T05:45:10.845Z,99382
2022-11-10T05:50:45.925Z,99390
2022-11-10T05:56:20.551Z,99394.3
2022-11-10T06:01:55.565Z,99400.5
2022-11-10T06:07:30.480Z,99402.7
2022-11-10T06:13:06.458Z,99402.8
2022-11-10T06:18:41.263Z,99402.2
2022-11-10T06:24:16.145Z,99405
2022-11-10T06:29:51.856Z,99410.2
2022-11-10T06:35:28.092Z,99413.9
2022-11-10T06:41:03.070Z,99419.4
2022-11-10T06:46:59.896Z,99421.9
2022-11-10T06:52:32.810Z,99425.5
2022-11-10T06:58:07.910Z,99428.3
2022-11-10T07:04:21.141Z,99426.6
2022-11-10T07:09:56.402Z,99429.2
2022-11-10T07:15:31.400Z,99437.4
2022-11-10T07:21:07.895Z,99448.1
2022-11-10T07:26:43.562Z,99445
2022-11-10T07:32:18.551Z,99457.7
2022-11-10T07:37:53.475Z,99455.7
2022-11-10T07:43:28.854Z,99457.1
2022-11-10T07:49:25.315Z,99464.5
2022-11-10T07:54:58.147Z,99466.3
2022-11-10T08:00:33.569Z,99465.6
2022-11-10T08:06:10.223Z,99469.7
2022-11-10T08:11:46.026Z,99477.5
2022-11-10T08:17:20.836Z,99486
2022-11-10T08:23:04.053Z,99486.9
2022-11-10T08:28:46.518Z,99487.2
2022-11-10T08:34:21.782Z,99486.6
2022-11-10T08:39:56.666Z,99484
2022-11-10T08:45:32.664Z,99489.4
2022-11-10T08:51:11.690Z,99501.9
2022-11-10T08:56:54.782Z,99501.9
2022-11-10T09:02:30.127Z,99498.1
2022-11-10T09:08:07.383Z,99490.9
2022-11-10T09:13:42.368Z,99491.1
2022-11-10T09:19:20.866Z,99494.2
2022-11-10T09:24:56.243Z,99487.8
2022-11-10T09:30:31.277Z,99492.4
2022-11-10T09:36:07.110Z,99493.5
2022-11-10T09:41:42.058Z,99497.4
2022-11-10T09:47:59.832Z,99502.2
2022-11-10T09:53:32.846Z,99503.6
2022-11-10T09:59:07.639Z,99507.6
2022-11-10T10:04:52.804Z,99501.8
2022-11-10T10:10:27.844Z,99497.2
2022-11-10T10:16:02.670Z,99498.7
2022-11-10T10:21:37.749Z,99504
2022-11-10T10:27:13.890Z,99508
2022-11-10T10:32:48.760Z,99512.2
2022-11-10T10:38:25.555Z,99518.1
2022-11-10T10:44:01.740Z,99517.9
2022-11-10T10:49:37.927Z,99519
2022-11-10T10:55:13.888Z,99518.3
2022-11-10T11:00:48.770Z,99512.4
2022-11-10T11:06:23.924Z,99513
2022-11-10T11:11:59.802Z,99506
2022-11-10T11:17:35.464Z,99499.9
2022-11-10T11:23:10.954Z,99497.4
2022-11-10T11:28:47.087Z,99498.7
2022-11-10T11:34:22.007Z,99498.4
2022-11-10T11:39:58.020Z,99494.9
2022-11-10T11:45:35.119Z,99496.1
2022-11-10T11:51:12.950Z,99498.2
2022-11-10T11:56:48.228Z,99496.1
2022-11-10T12:02:23.505Z,99497
2022-11-10T12:07:59.814Z,99492.9
2022-11-10T12:13:35.725Z,99489.4
2022-11-10T12:19:10.918Z,99489.4
2022-11-10T12:24:45.843Z,99485.3
2022-11-10T12:30:21.828Z,99474.6
2022-11-10T12:35:56.813Z,99471.5
2022-11-10T12:41:31.720Z,99473.3
2022-11-10T12:47:07.598Z,99465.5
2022-11-10T12:52:43.039Z,99458
2022-11-10T12:58:20.381Z,99458.2
2022-11-10T13:03:57.312Z,99462.4
2022-11-10T13:09:33.305Z,99456.7
2022-11-10T13:15:17.117Z,99457.4
2022-11-10T13:21:02.113Z,99464
2022-11-10T13:26:37.160Z,99459.9
2022-11-10T13:32:12.391Z,99464.4
2022-11-10T13:37:52.545Z,99458
2022-11-10T13:43:40.594Z,99451.9
2022-11-10T13:49:37.366Z,99449.6
2022-11-10T13:55:17.002Z,99445.7
2022-11-10T14:00:52.579Z,99447
2022-11-10T14:06:27.742Z,99444.4
2022-11-10T14:12:04.160Z,99441.2
2022-11-10T14:17:39.153Z,99446
2022-11-10T14:23:15.073Z,99453.7
2022-11-10T14:28:50.076Z,99454.2
2022-11-10T14:34:26.939Z,99460.1
2022-11-10T14:40:01.782Z,99462.6
2022-11-10T14:45:37.507Z,99466.6
2022-11-10T14:51:13.655Z,99469.2
2022-11-10T14:56:51.861Z,99470.1
2022-11-10T15:02:27.593Z,99479.5
2022-11-10T15:08:03.732Z,99484.2
2022-11-10T15:13:38.521Z,99483.6
2022-11-10T15:19:15.050Z,99479.8
2022-11-10T15:24:50.752Z,99482.5
2022-11-10T15:30:25.512Z,99486.4
2022-11-10T15:36:01.160Z,99483.5
2022-11-10T15:41:37.154Z,99479.3
2022-11-10T15:47:11.964Z,99481
2022-11-10T15:52:47.276Z,99481.7
2022-11-10T15:58:25.035Z,99488.3
2022-11-10T16:04:01.998Z,99490.3
2022-11-10T16:09:37.252Z,99485.8
2022-11-10T16:15:12.426Z,99484.6
2022-11-10T16:20:47.117Z,99483.4
2022-11-10T16:26:23.926Z,99489.9
2022-11-10T16:31:59.753Z,99495
2022-11-10T16:37:35.915Z,99494
2022-11-10T16:43:11.564Z,99502.3
2022-11-10T16:48:47.143Z,99522.5
2022-11-10T16:54:22.197Z,99524.6
2022-11-10T16:59:57.890Z,99535.6
2022-11-10T17:05:33.172Z,99540
2022-11-10T17:11:08.186Z,99546.9
2022-11-10T17:16:43.618Z,99553.2
2022-11-10T17:22:19.576Z,99549.5
2022-11-10T17:27:54.465Z,99553.9
2022-11-10T17:33:30.800Z,99546.4
2022-11-10T17:39:07.513Z,99539.4
2022-11-10T17:44:42.436Z,99550.7
2022-11-10T17:50:17.984Z,99551.8
2022-11-10T17:55:53.610Z,99553.9
2022-11-10T18:01:29.046Z,99554.8
2022-11-10T18:07:06.032Z,99553.7
2022-11-10T18:12:41.855Z,99558.7
2022-11-10T18:18:17.102Z,99564.8
2022-11-10T18:23:52.537Z,99562.2
2022-11-10T18:29:27.951Z,99566.7
2022-11-10T18:35:02.799Z,99574
2022-11-10T18:40:38.306Z,99572.1
2022-11-10T18:46:21.936Z,99569.6
2022-11-10T18:52:17.875Z,99560.4
2022-11-10T18:57:54.795Z,99555.3
2022-11-10T19:03:30.321Z,99559
2022-11-10T19:09:06.661Z,99554.2
2022-11-10T19:14:41.740Z,99551.1
2022-11-10T19:20:18.195Z,99549.8
2022-11-10T19:25:52.994Z,99546.1
2022-11-10T19:31:28.595Z,99551.4
2022-11-10T19:37:03.980Z,99553.1
2022-11-10T19:42:38.909Z,99547.5
2022-11-10T19:48:14.560Z,99545.8
2022-11-10T19:53:49.768Z,99534.1
2022-11-10T19:59:25.013Z,99533.5
2022-11-10T20:05:00.700Z,99533.4
2022-11-10T20:10:36.482Z,99528.7
2022-11-10T20:16:11.395Z,99527.9
2022-11-10T20:21:49.670Z,99521.7
2022-11-10T20:27:25.642Z,99526.9
2022-11-10T20:33:00.656Z,99527.1
2022-11-10T20:38:36.848Z,99528
2022-11-10T20:44:16.039Z,99530.2
2022-11-10T20:49:50.855Z,99521.9
2022-11-10T20:55:54.508Z,99514.5
2022-11-10T21:01:31.164Z,99516.7
2022-11-10T21:07:09.491Z,99520.2
2022-11-10T21:12:49.276Z,99523.6
2022-11-10T21:18:25.662Z,99530.2
2022-11-10T21:24:01.207Z,99523
2022-11-10T21:29:38.137Z,99522.6
2022-11-10T21:35:14.897Z,99520.7
2022-11-10T21:40:51.751Z,99518.2
2022-11-10T21:46:50.035Z,99515.9
2022-11-10T21:52:24.637Z,99511.9
2022-11-10T21:58:00.165Z,99506.7
2022-11-10T22:03:36.245Z,99505.1
2022-11-10T22:09:12.981Z,99501.9
2022-11-10T22:14:48.036Z,99498.8
2022-11-10T22:20:23.214Z,99506.8
2022-11-10T22:25:58.773Z,99505.5
2022-11-10T22:31:33.934Z,99512.6
2022-11-10T22:37:09.705Z,99510.7
2022-11-10T22:42:45.174Z,99516.6
2022-11-10T22:48:41.800Z,99507
2022-11-10T22:54:16.305Z,99502.7
2022-11-10T22:59:51.554Z,99497
2022-11-10T23:05:26.453Z,99495.1
2022-11-10T23:11:02.772Z,99508.5
2022-11-10T23:16:38.264Z,99502.6
2022-11-10T23:22:14.022Z,99495.7
2022-11-10T23:27:50.015Z,99511.5
2022-11-10T23:33:34.270Z,99515.6
2022-11-10T23:39:10.251Z,99528.3
2022-11-10T23:44:45.997Z,99527.1
2022-11-10T23:50:22.433Z,99519.9
2022-11-10T23:55:57.550Z,99521.8
